createdAt,value
2022-09-01T00:01:33.030Z,16.49
2022-09-01T00:07:08.462Z,16.47
2022-09-01T00:12:44.034Z,16.48
2022-09-01T00:18:19.574Z,16.40
2022-09-01T00:23:54.998Z,16.41
2022-09-01T00:29:30.263Z,16.37
2022-09-01T00:32:14.827Z,16.38
2022-09-01T00:37:50.120Z,16.32
2022-09-01T00:43:27.163Z,16.34
2022-09-01T00:49:02.508Z,16.30
2022-09-01T00:51:48.067Z,16.30
2022-09-01T00:57:23.467Z,16.28
2022-09-01T01:02:59.145Z,16.28
2022-09-01T01:08:34.503Z,16.21
2022-09-01T01:17:01.289Z,16.20
2022-09-01T01:22:36.620Z,16.19
2022-09-01T01:28:12.102Z,16.16
2022-09-01T01:33:47.460Z,16.12
2022-09-01T01:39:23.971Z,16.06
2022-09-01T01:42:08.535Z,15.99
2022-09-01T01:47:43.854Z,16.00
2022-09-01T01:53:19.082Z,15.98
2022-09-01T02:01:45.440Z,15.86
2022-09-01T02:07:20.773Z,15.85
2022-09-01T02:12:56.171Z,15.79
2022-09-01T02:18:31.696Z,15.77
2022-09-01T02:24:07.091Z,15.67
2022-09-01T02:29:43.503Z,15.69
2022-09-01T02:32:28.339Z,15.71
2022-09-01T02:38:03.933Z,15.68
2022-09-01T02:43:39.214Z,15.61
2022-09-01T02:49:14.641Z,15.57
2022-09-01T02:51:59.257Z,15.54
2022-09-01T02:54:44.788Z,15.53
2022-09-01T03:00:21.169Z,15.45
2022-09-01T03:03:07.175Z,15.48
2022-09-01T03:08:42.867Z,15.44
2022-09-01T03:11:29.405Z,15.42
2022-09-01T03:17:06.741Z,15.39
2022-09-01T03:22:42.510Z,15.40
2022-09-01T03:28:18.028Z,15.30
2022-09-01T03:33:53.453Z,15.17
2022-09-01T03:42:19.497Z,15.02
2022-09-01T03:45:05.987Z,14.95
2022-09-01T03:50:41.622Z,14.82
2022-09-01T03:53:26.416Z,14.75
2022-09-01T03:59:01.840Z,14.63
2022-09-01T04:04:37.185Z,14.49
2022-09-01T04:10:13.298Z,14.36
2022-09-01T04:15:48.609Z,14.19
2022-09-01T04:24:16.066Z,14.03
2022-09-01T04:29:53.879Z,14.06
2022-09-01T04:35:38.026Z,13.95
2022-09-01T04:41:17.389Z,13.77
2022-09-01T04:44:01.918Z,13.74
2022-09-01T04:49:38.287Z,13.64
2022-09-01T04:58:10.157Z,13.66
2022-09-01T05:09:32.763Z,13.66
2022-09-01T05:15:12.280Z,13.69
2022-09-01T05:20:48.048Z,13.75
2022-09-01T05:23:32.668Z,13.75
2022-09-01T05:29:08.379Z,13.79
2022-09-01T05:40:25.422Z,13.96
2022-09-01T05:43:10.619Z,14.01
2022-09-01T05:48:46.015Z,14.10
2022-09-01T05:54:21.280Z,14.22
2022-09-01T05:59:56.557Z,14.33
2022-09-01T06:05:31.874Z,14.42
2022-09-01T06:11:07.197Z,14.57
2022-09-01T06:13:55.219Z,14.61
2022-09-01T06:19:33.646Z,14.77
2022-09-01T06:25:15.115Z,14.92
2022-09-01T06:30:50.456Z,15.06
2022-09-01T06:33:34.980Z,15.16
2022-09-01T06:39:10.212Z,15.28
2022-09-01T06:44:45.532Z,15.43
2022-09-01T06:47:31.057Z,15.52
2022-09-01T06:53:34.491Z,15.66
2022-09-01T06:58:50.674Z,15.82
2022-09-01T07:04:26.086Z,15.93
2022-09-01T07:10:18.517Z,16.07
2022-09-01T07:13:06.100Z,16.13
2022-09-01T07:21:40.858Z,16.40
2022-09-01T07:24:26.612Z,16.50
2022-09-01T07:30:07.998Z,16.63
2022-09-01T07:32:52.610Z,16.72
2022-09-01T07:39:47.155Z,16.87
2022-09-01T07:44:13.516Z,17.00
2022-09-01T07:50:12.495Z,17.13
2022-09-01T07:52:44.389Z,17.19
2022-09-01T08:01:10.576Z,17.30
2022-09-01T08:06:46.211Z,17.43
2022-09-01T08:12:30.849Z,17.57
2022-09-01T08:15:41.375Z,17.65
2022-09-01T08:20:59.240Z,17.76
2022-09-01T08:23:44.850Z,17.75
2022-09-01T08:29:22.121Z,17.87
2022-09-01T08:34:57.554Z,17.93
2022-09-01T08:40:32.992Z,18.15
2022-09-01T08:43:18.147Z,18.39
2022-09-01T08:49:24.795Z,18.44
2022-09-01T08:54:37.864Z,18.45
2022-09-01T09:00:13.742Z,18.46
2022-09-01T09:02:58.464Z,18.51
2022-09-01T09:08:33.978Z,18.66
2022-09-01T09:14:09.817Z,18.70
2022-09-01T09:19:46.134Z,18.71
2022-09-01T09:25:25.481Z,18.81
2022-09-01T09:31:00.983Z,18.91
2022-09-01T09:36:36.333Z,18.99
2022-09-01T09:42:11.679Z,19.17
2022-09-01T09:44:57.777Z,19.16
2022-09-01T09:50:33.194Z,19.18
2022-09-01T09:53:17.719Z,19.18
2022-09-01T09:58:53.109Z,19.40
2022-09-01T10:04:28.458Z,19.42
2022-09-01T10:10:03.888Z,19.62
2022-09-01T10:15:39.521Z,19.66
2022-09-01T10:21:15.790Z,19.55
2022-09-01T10:24:17.756Z,19.57
2022-09-01T10:29:47.878Z,19.84
2022-09-01T10:35:23.301Z,19.69
2022-09-01T10:40:58.976Z,19.73
2022-09-01T10:43:44.533Z,19.78
2022-09-01T10:46:40.755Z,19.98
2022-09-01T10:52:16.275Z,20.41
2022-09-01T10:55:00.840Z,20.30
2022-09-01T11:00:37.119Z,19.97
2022-09-01T11:03:32.676Z,19.90
2022-09-01T11:09:06.283Z,20.37
2022-09-01T11:14:41.727Z,20.67
2022-09-01T11:20:18.110Z,20.58
2022-09-01T11:23:03.504Z,20.57
2022-09-01T11:28:41.212Z,20.77
2022-09-01T11:34:18.093Z,21.06
2022-09-01T11:42:46.797Z,21.48
2022-09-01T11:45:31.603Z,21.65
2022-09-01T11:51:07.183Z,21.94
2022-09-01T11:53:55.465Z,22.03
2022-09-01T11:59:30.725Z,21.89
2022-09-01T12:02:17.339Z,21.95
2022-09-01T12:05:02.049Z,22.17
2022-09-01T12:10:37.392Z,22.24
2022-09-01T12:13:22.172Z,22.22
2022-09-01T12:18:57.848Z,22.63
2022-09-01T12:24:33.148Z,22.86
2022-09-01T12:30:08.414Z,23.04
2022-09-01T12:35:43.940Z,23.42
2022-09-01T12:41:19.349Z,23.16
2022-09-01T12:44:03.881Z,23.31
2022-09-01T12:49:47.825Z,23.28
2022-09-01T12:55:47.971Z,24.79
2022-09-01T13:01:08.882Z,24.47
2022-09-01T13:04:01.270Z,23.67
2022-09-01T13:09:36.673Z,23.42
2022-09-01T13:15:15.262Z,30.75
2022-09-01T13:23:41.508Z,36.75
2022-09-01T13:29:16.785Z,36.09
2022-09-01T13:34:52.349Z,37.29
2022-09-01T13:37:37.488Z,38.00
2022-09-01T13:43:12.977Z,37.66
2022-09-01T13:49:04.370Z,37.07
2022-09-01T13:54:32.632Z,30.63
2022-09-01T14:00:10.016Z,34.60
2022-09-01T14:05:49.846Z,36.43
2022-09-01T14:11:26.436Z,32.45
2022-09-01T14:14:12.648Z,31.29
2022-09-01T14:19:55.427Z,29.77
2022-09-01T14:25:33.309Z,28.26
2022-09-01T14:31:17.538Z,27.25
2022-09-01T14:34:08.752Z,27.01
2022-09-01T14:39:47.467Z,28.39
2022-09-01T14:45:24.000Z,30.79
2022-09-01T14:50:59.348Z,32.52
2022-09-01T14:53:48.451Z,32.83
2022-09-01T14:59:32.816Z,34.78
2022-09-01T15:05:17.868Z,34.90
2022-09-01T15:11:04.887Z,32.74
2022-09-01T15:13:52.689Z,33.06
2022-09-01T15:19:28.207Z,34.92
2022-09-01T15:25:03.562Z,34.08
2022-09-01T15:30:38.766Z,33.25
2022-09-01T15:33:24.424Z,32.59
2022-09-01T15:38:59.692Z,32.42
2022-09-01T15:44:36.034Z,30.74
2022-09-01T15:50:21.209Z,27.61
2022-09-01T15:59:01.288Z,25.88
2022-09-01T16:04:40.893Z,24.95
2022-09-01T16:10:18.266Z,24.27
2022-09-01T16:15:58.028Z,24.05
2022-09-01T16:30:05.611Z,23.37
2022-09-01T16:35:42.971Z,22.94
2022-09-01T16:41:19.078Z,22.60
2022-09-01T16:44:03.541Z,22.39
2022-09-01T16:49:41.832Z,22.14
2022-09-01T17:00:58.662Z,21.51
2022-09-01T17:03:47.097Z,21.40
2022-09-01T17:09:24.151Z,21.23
2022-09-01T17:15:00.442Z,21.02
2022-09-01T17:20:36.925Z,20.74
2022-09-01T17:23:28.096Z,20.57
2022-09-01T17:34:48.101Z,20.19
2022-09-01T17:40:23.501Z,19.99
2022-09-01T18:25:51.090Z,18.54
2022-09-01T18:34:20.810Z,18.32
2022-09-01T18:45:46.956Z,18.08
2022-09-01T18:57:04.703Z,17.75
2022-09-01T19:02:40.223Z,17.60
2022-09-01T19:19:43.272Z,17.24
2022-09-01T19:31:07.003Z,17.02
2022-09-01T19:50:57.868Z,16.62
2022-09-01T20:02:23.534Z,16.52
2022-09-01T20:19:23.744Z,16.22
2022-09-01T20:24:59.242Z,16.10
2022-09-01T20:30:34.904Z,16.02
2022-09-01T20:36:10.235Z,16.00
2022-09-01T20:47:28.281Z,15.82
2022-09-01T20:53:03.536Z,15.75
2022-09-01T20:55:48.149Z,15.73
2022-09-01T21:01:23.693Z,15.61
2022-09-01T21:04:08.209Z,15.58
2022-09-01T21:09:44.379Z,15.51
2022-09-01T21:18:12.111Z,15.40
2022-09-01T21:23:47.978Z,15.35
2022-09-01T21:29:23.285Z,15.30
2022-09-01T21:34:58.583Z,15.19
2022-09-01T21:43:25.691Z,14.92
2022-09-01T21:49:00.972Z,14.79
2022-09-01T21:54:37.520Z,14.72
2022-09-01T22:00:12.793Z,14.53
2022-09-01T22:05:48.555Z,14.46
2022-09-01T22:11:25.278Z,14.50
2022-09-01T22:14:09.810Z,14.40
2022-09-01T22:19:45.511Z,14.26
2022-09-01T22:25:21.149Z,14.24
2022-09-01T22:30:57.262Z,14.21
2022-09-01T22:36:34.400Z,14.30
2022-09-01T22:47:52.505Z,14.52
2022-09-01T22:53:27.940Z,14.58
2022-09-01T22:59:05.361Z,14.64
2022-09-01T23:04:41.019Z,14.76
2022-09-01T23:13:07.176Z,14.73
2022-09-01T23:15:51.778Z,14.69
2022-09-01T23:21:29.167Z,14.67
2022-09-01T23:27:04.630Z,14.61
2022-09-01T23:32:39.990Z,14.59
2022-09-01T23:35:27.748Z,14.59
2022-09-01T23:41:03.522Z,14.55
2022-09-01T23:43:48.033Z,14.53
2022-09-01T23:49:25.378Z,14.48
2022-09-01T23:55:03.606Z,14.42
